Pagrindinis puslapis
METAR-TAF:

METAR-TAF

Oro uostai :

Leknes, Norvegija

platuma: 68-09N, ilguma: 013-37E, Aukštis: 2 m

Dabartinis oras

Ataskaita buvo paskelbta 32 minutes, ne 05:50 UTC
Vėjas 4 kt iš Šiaurės/Šiaurės Rytų
Temperatūra 11°C
Drėgmė 94%
Slėgis 1003 hPa
Matomumas 10 km arba daugiau
Mažai debesys ne aukštis 400 ft
Išsisklaidę debesys ne aukštis 600 ft
Apsiniaukę ne aukštis 700 ft

METAR: ENLK 200550Z 03004KT 9999 FEW004 SCT006 OVC007 11/10 Q1003

Laikas: 08:22 (06:22 UTC)


TAF: trūkstamas

Orai ataskaitas ir orų prognozės (METAR, TAF).

turimą stotys yra geltonos ir raudonos taškus žemėlapyje.

Perkelti pele per norėdami pamatyti stoties vardą.

Tada spustelėkite, norėdami matyti oro stebėjimo ir prognozės.

Norėdami pakeisti žemėlapį: spustelėkite ant žalios mygtukų su juodo kryžiaus žemyn,; žalią mygtuką su brūkšneliu, jei norite nutolinti; arba žalių rodyklių gretimoms žemėlapius.


METAR-TAF: